createdAt,value
2023-04-21T00:03:36.078Z,11.13
2023-04-21T00:13:37.291Z,19.73
2023-04-21T00:23:36.955Z,17.50
2023-04-21T00:33:36.982Z,14.47
2023-04-21T00:43:37.078Z,26.06
2023-04-21T00:53:37.066Z,18.55
2023-04-21T01:03:37.528Z,16.62
2023-04-21T01:13:38.081Z,11.21
2023-04-21T01:23:37.991Z,5.19
2023-04-21T01:33:38.134Z,8.45
2023-04-21T01:43:38.154Z,14.08
2023-04-21T01:53:38.161Z,6.81
2023-04-21T02:03:38.560Z,12.79
2023-04-21T02:13:39.794Z,14.06
2023-04-21T02:23:40.420Z,13.51
2023-04-21T02:33:40.510Z,11.97
2023-04-21T02:43:41.230Z,6.16
2023-04-21T02:53:41.297Z,10.95
2023-04-21T03:03:41.333Z,12.66
2023-04-21T03:13:41.299Z,7.95
2023-04-21T03:23:41.244Z,9.66
2023-04-21T03:33:41.214Z,2.35
2023-04-21T03:43:41.270Z,13.35
2023-04-21T03:53:41.253Z,9.74
2023-04-21T04:03:41.553Z,10.90
2023-04-21T04:13:42.311Z,8.46
2023-04-21T04:23:43.835Z,6.03
2023-04-21T04:33:44.258Z,6.56
2023-04-21T04:43:44.360Z,10.62
2023-04-21T04:53:44.351Z,11.46
2023-04-21T05:03:44.496Z,10.40
2023-04-21T05:13:45.303Z,8.00
2023-04-21T05:23:45.359Z,7.67
2023-04-21T05:33:45.390Z,9.18
2023-04-21T05:43:47.043Z,11.85
2023-04-21T05:53:47.430Z,10.03
2023-04-21T06:03:49.797Z,10.53
2023-04-21T06:13:50.518Z,10.19
2023-04-21T06:23:50.390Z,12.87
2023-04-21T06:33:50.420Z,11.71
2023-04-21T06:43:50.430Z,13.28
2023-04-21T06:53:50.736Z,10.35
2023-04-21T07:03:50.808Z,10.67
2023-04-21T07:13:51.432Z,6.18
2023-04-21T07:23:51.564Z,5.90
2023-04-21T07:33:51.576Z,8.10
2023-04-21T07:43:53.681Z,9.20
2023-04-21T07:53:53.517Z,7.77
2023-04-21T08:03:53.646Z,9.04
2023-04-21T08:13:53.562Z,8.03
2023-04-21T08:23:55.067Z,5.59
2023-04-21T08:34:01.943Z,8.06
2023-04-21T08:43:57.738Z,7.25
2023-04-21T08:53:57.622Z,9.25
2023-04-21T09:03:57.902Z,6.00
2023-04-21T09:13:58.030Z,8.76
2023-04-21T09:23:58.705Z,7.80
2023-04-21T09:34:00.828Z,6.25
2023-04-21T09:44:01.205Z,8.75
2023-04-21T09:54:01.756Z,5.56
2023-04-21T10:04:01.867Z,7.85
2023-04-21T10:14:02.801Z,8.06
2023-04-21T10:24:02.746Z,6.77
2023-04-21T10:34:02.833Z,7.28
2023-04-21T10:44:02.808Z,9.68
2023-04-21T10:54:05.873Z,5.69
2023-04-21T11:04:06.024Z,4.30
2023-04-21T11:14:05.994Z,7.00
2023-04-21T11:24:05.826Z,3.60
2023-04-21T11:34:06.408Z,5.50
2023-04-21T11:44:07.956Z,4.50
2023-04-21T11:54:08.202Z,3.60
2023-04-21T12:04:08.090Z,2.60
2023-04-21T12:14:09.068Z,3.50
2023-04-21T12:24:08.966Z,3.80
2023-04-21T12:34:09.034Z,5.20
2023-04-21T12:44:09.036Z,6.50
2023-04-21T12:54:08.930Z,4.70
2023-04-21T13:04:09.523Z,3.10
2023-04-21T13:14:10.273Z,3.80
2023-04-21T13:24:11.306Z,3.90
2023-04-21T13:34:11.999Z,3.10
2023-04-21T13:44:12.039Z,2.40
2023-04-21T13:54:12.020Z,1.50
2023-04-21T14:04:12.177Z,2.00
2023-04-21T14:14:12.079Z,2.00
2023-04-21T14:24:12.168Z,2.30
2023-04-21T14:34:12.128Z,3.40
2023-04-21T14:44:12.204Z,3.60
2023-04-21T14:54:12.453Z,2.90
2023-04-21T15:04:12.280Z,2.10
2023-04-21T15:14:12.386Z,1.60
2023-04-21T15:24:12.164Z,1.60
2023-04-21T15:34:12.387Z,1.20
2023-04-21T15:44:12.256Z,1.80
2023-04-21T15:54:12.280Z,1.90
2023-04-21T16:04:12.533Z,2.00
2023-04-21T16:14:15.386Z,1.90
2023-04-21T16:24:15.472Z,1.10
2023-04-21T16:34:15.857Z,2.10
2023-04-21T16:44:16.322Z,2.90
2023-04-21T16:54:16.296Z,1.10
2023-04-21T17:04:16.391Z,1.10
2023-04-21T17:14:16.379Z,1.00
2023-04-21T17:24:16.382Z,1.40
2023-04-21T17:34:16.384Z,2.00
2023-04-21T17:44:16.389Z,1.00
2023-04-21T17:54:16.441Z,2.00
2023-04-21T18:04:16.563Z,1.90
2023-04-21T18:14:17.591Z,1.80
2023-04-21T18:24:17.425Z,1.20
2023-04-21T18:34:17.596Z,0.80
2023-04-21T18:44:17.510Z,2.39
2023-04-21T18:54:17.438Z,1.00
2023-04-21T19:15:21.509Z,14.65
2023-04-21T19:25:21.619Z,0.60
2023-04-21T19:35:21.734Z,0.40
2023-04-21T19:45:21.539Z,1.68
2023-04-21T19:55:21.943Z,1.28
2023-04-21T20:05:22.583Z,1.38
2023-04-21T20:15:23.155Z,0.98
2023-04-21T20:25:23.739Z,1.28
2023-04-21T20:35:23.633Z,2.06
2023-04-21T20:45:23.776Z,1.47
2023-04-21T20:55:23.658Z,1.27
2023-04-21T21:05:23.728Z,2.54
2023-04-21T21:15:23.765Z,2.82
2023-04-21T21:25:23.669Z,2.62
2023-04-21T21:35:23.890Z,1.94
2023-04-21T21:45:23.734Z,2.42
2023-04-21T21:55:23.772Z,3.10
2023-04-21T22:05:23.813Z,1.84
2023-04-21T22:15:23.744Z,2.99
2023-04-21T22:25:25.662Z,2.89
2023-04-21T22:35:25.843Z,2.11
2023-04-21T22:45:26.089Z,2.11
2023-04-21T22:55:25.845Z,1.91
2023-04-21T23:05:25.781Z,2.29
2023-04-21T23:15:26.432Z,2.29
2023-04-21T23:25:26.896Z,3.24
2023-04-21T23:35:26.889Z,3.52
2023-04-21T23:45:26.854Z,2.47
2023-04-21T23:55:26.853Z,4.65
